sensor_id;sensor_type;location;lat;lon;timestamp;temperature;humidity
9033;DHT22;4551;53.164;8.210;2023-04-01T00:00:56;10.60;99.90
9033;DHT22;4551;53.164;8.210;2023-04-01T00:03:25;10.60;99.90
9033;DHT22;4551;53.164;8.210;2023-04-01T00:05:54;10.60;99.90
9033;DHT22;4551;53.164;8.210;2023-04-01T00:08:22;10.60;99.90
9033;DHT22;4551;53.164;8.210;2023-04-01T00:10:51;10.60;99.90
9033;DHT22;4551;53.164;8.210;2023-04-01T00:13:19;10.60;99.90
9033;DHT22;4551;53.164;8.210;2023-04-01T00:15:47;10.60;99.90
9033;DHT22;4551;53.164;8.210;2023-04-01T00:18:16;10.60;99.90
9033;DHT22;4551;53.164;8.210;2023-04-01T00:20:45;10.60;99.90
9033;DHT22;4551;53.164;8.210;2023-04-01T00:23:13;10.60;99.90
9033;DHT22;4551;53.164;8.210;2023-04-01T00:25:42;10.60;99.90
9033;DHT22;4551;53.164;8.210;2023-04-01T00:28:10;10.60;99.90
9033;DHT22;4551;53.164;8.210;2023-04-01T00:30:38;10.60;99.90
9033;DHT22;4551;53.164;8.210;2023-04-01T00:33:06;10.60;99.90
9033;DHT22;4551;53.164;8.210;2023-04-01T00:35:35;10.70;99.90
9033;DHT22;4551;53.164;8.210;2023-04-01T00:38:03;10.70;99.90
9033;DHT22;4551;53.164;8.210;2023-04-01T00:40:32;10.70;99.90
9033;DHT22;4551;53.164;8.210;2023-04-01T00:43:01;10.70;99.90
9033;DHT22;4551;53.164;8.210;2023-04-01T00:45:31;10.70;99.90
9033;DHT22;4551;53.164;8.210;2023-04-01T00:48:01;10.70;99.90
9033;DHT22;4551;53.164;8.210;2023-04-01T00:50:30;10.60;99.90
9033;DHT22;4551;53.164;8.210;2023-04-01T00:53:00;10.70;99.90
9033;DHT22;4551;53.164;8.210;2023-04-01T00:55:29;10.70;99.90
9033;DHT22;4551;53.164;8.210;2023-04-01T00:57:59;10.70;99.90
9033;DHT22;4551;53.164;8.210;2023-04-01T01:00:27;10.70;99.90
9033;DHT22;4551;53.164;8.210;2023-04-01T01:02:55;10.70;99.90
9033;DHT22;4551;53.164;8.210;2023-04-01T01:05:27;10.70;99.90
9033;DHT22;4551;53.164;8.210;2023-04-01T01:08:13;10.70;99.90
9033;DHT22;4551;53.164;8.210;2023-04-01T01:10:45;10.60;99.90
9033;DHT22;4551;53.164;8.210;2023-04-01T01:13:17;10.70;99.90
9033;DHT22;4551;53.164;8.210;2023-04-01T01:15:47;10.70;99.90
9033;DHT22;4551;53.164;8.210;2023-04-01T01:18:19;10.60;99.90
9033;DHT22;4551;53.164;8.210;2023-04-01T01:20:56;10.70;99.90
9033;DHT22;4551;53.164;8.210;2023-04-01T01:23:44;10.70;99.90
9033;DHT22;4551;53.164;8.210;2023-04-01T01:26:31;10.70;99.90
9033;DHT22;4551;53.164;8.210;2023-04-01T01:29:07;10.70;99.90
9033;DHT22;4551;53.164;8.210;2023-04-01T01:31:44;10.70;99.90
9033;DHT22;4551;53.164;8.210;2023-04-01T01:34:15;10.70;99.90
9033;DHT22;4551;53.164;8.210;2023-04-01T01:36:48;10.70;99.90
9033;DHT22;4551;53.164;8.210;2023-04-01T01:39:19;10.70;99.90
9033;DHT22;4551;53.164;8.210;2023-04-01T01:41:53;10.60;99.90
9033;DHT22;4551;53.164;8.210;2023-04-01T01:44:22;10.60;99.90
9033;DHT22;4551;53.164;8.210;2023-04-01T01:46:51;10.60;99.90
9033;DHT22;4551;53.164;8.210;2023-04-01T01:49:19;10.60;99.90
9033;DHT22;4551;53.164;8.210;2023-04-01T01:51:49;10.70;99.90
9033;DHT22;4551;53.164;8.210;2023-04-01T01:54:19;10.60;99.90
9033;DHT22;4551;53.164;8.210;2023-04-01T01:56:50;10.60;99.90
9033;DHT22;4551;53.164;8.210;2023-04-01T01:59:21;10.60;99.90
9033;DHT22;4551;53.164;8.210;2023-04-01T02:01:50;10.60;99.90
9033;DHT22;4551;53.164;8.210;2023-04-01T02:04:19;10.60;99.90
9033;DHT22;4551;53.164;8.210;2023-04-01T02:06:50;10.60;99.90
9033;DHT22;4551;53.164;8.210;2023-04-01T02:09:20;10.60;99.90
9033;DHT22;4551;53.164;8.210;2023-04-01T02:11:48;10.60;99.90
9033;DHT22;4551;53.164;8.210;2023-04-01T02:14:18;10.60;99.90
9033;DHT22;4551;53.164;8.210;2023-04-01T02:16:49;10.60;99.90
9033;DHT22;4551;53.164;8.210;2023-04-01T02:19:17;10.60;99.90
9033;DHT22;4551;53.164;8.210;2023-04-01T02:21:50;10.60;99.90
9033;DHT22;4551;53.164;8.210;2023-04-01T02:24:21;10.60;99.90
9033;DHT22;4551;53.164;8.210;2023-04-01T02:26:51;10.60;99.90
9033;DHT22;4551;53.164;8.210;2023-04-01T02:29:19;10.60;99.90
9033;DHT22;4551;53.164;8.210;2023-04-01T02:31:48;10.60;99.90
9033;DHT22;4551;53.164;8.210;2023-04-01T02:34:18;10.60;99.90
9033;DHT22;4551;53.164;8.210;2023-04-01T02:36:46;10.60;99.90
9033;DHT22;4551;53.164;8.210;2023-04-01T02:39:16;10.60;99.90
9033;DHT22;4551;53.164;8.210;2023-04-01T02:41:47;10.60;99.90
9033;DHT22;4551;53.164;8.210;2023-04-01T02:44:15;10.60;99.90
9033;DHT22;4551;53.164;8.210;2023-04-01T02:46:43;10.60;99.90
9033;DHT22;4551;53.164;8.210;2023-04-01T02:49:11;10.60;99.90
9033;DHT22;4551;53.164;8.210;2023-04-01T02:51:42;10.60;99.90
9033;DHT22;4551;53.164;8.210;2023-04-01T02:54:10;10.60;99.90
9033;DHT22;4551;53.164;8.210;2023-04-01T02:56:40;10.60;99.90
9033;DHT22;4551;53.164;8.210;2023-04-01T02:59:08;10.60;99.90
9033;DHT22;4551;53.164;8.210;2023-04-01T03:01:36;10.60;99.90
9033;DHT22;4551;53.164;8.210;2023-04-01T03:04:04;10.60;99.90
9033;DHT22;4551;53.164;8.210;2023-04-01T03:06:32;10.60;99.90
9033;DHT22;4551;53.164;8.210;2023-04-01T03:09:00;10.60;99.90
9033;DHT22;4551;53.164;8.210;2023-04-01T03:11:28;10.60;99.90
9033;DHT22;4551;53.164;8.210;2023-04-01T03:13:57;10.60;99.90
9033;DHT22;4551;53.164;8.210;2023-04-01T03:16:25;10.60;99.90
9033;DHT22;4551;53.164;8.210;2023-04-01T03:18:53;10.50;99.90
9033;DHT22;4551;53.164;8.210;2023-04-01T03:21:25;10.50;99.90
9033;DHT22;4551;53.164;8.210;2023-04-01T03:23:53;10.50;99.90
9033;DHT22;4551;53.164;8.210;2023-04-01T03:26:21;10.50;99.90
9033;DHT22;4551;53.164;8.210;2023-04-01T03:28:49;10.60;99.90
9033;DHT22;4551;53.164;8.210;2023-04-01T03:31:19;10.50;99.90
9033;DHT22;4551;53.164;8.210;2023-04-01T03:33:49;10.60;99.90
9033;DHT22;4551;53.164;8.210;2023-04-01T03:36:17;10.50;99.90
9033;DHT22;4551;53.164;8.210;2023-04-01T03:38:45;10.50;99.90
9033;DHT22;4551;53.164;8.210;2023-04-01T03:41:14;10.50;99.90
9033;DHT22;4551;53.164;8.210;2023-04-01T03:43:42;10.50;99.90
9033;DHT22;4551;53.164;8.210;2023-04-01T03:46:10;10.50;99.90
9033;DHT22;4551;53.164;8.210;2023-04-01T03:48:40;10.50;99.90
9033;DHT22;4551;53.164;8.210;2023-04-01T03:51:08;10.50;99.90
9033;DHT22;4551;53.164;8.210;2023-04-01T03:53:36;10.50;99.90
9033;DHT22;4551;53.164;8.210;2023-04-01T03:56:04;10.50;99.90
9033;DHT22;4551;53.164;8.210;2023-04-01T03:58:32;10.50;99.90
9033;DHT22;4551;53.164;8.210;2023-04-01T04:01:00;10.50;99.90
9033;DHT22;4551;53.164;8.210;2023-04-01T04:03:28;10.50;99.90
9033;DHT22;4551;53.164;8.210;2023-04-01T04:05:58;10.50;99.90
9033;DHT22;4551;53.164;8.210;2023-04-01T04:08:26;10.50;99.90
9033;DHT22;4551;53.164;8.210;2023-04-01T04:10:54;10.50;99.90
9033;DHT22;4551;53.164;8.210;2023-04-01T04:13:22;10.50;99.90
9033;DHT22;4551;53.164;8.210;2023-04-01T04:15:50;10.50;99.90
9033;DHT22;4551;53.164;8.210;2023-04-01T04:18:18;10.50;99.90
9033;DHT22;4551;53.164;8.210;2023-04-01T04:20:47;10.50;99.90
9033;DHT22;4551;53.164;8.210;2023-04-01T04:23:21;10.50;99.90
9033;DHT22;4551;53.164;8.210;2023-04-01T04:25:53;10.50;99.90
9033;DHT22;4551;53.164;8.210;2023-04-01T04:28:21;10.40;99.90
9033;DHT22;4551;53.164;8.210;2023-04-01T04:30:49;10.40;99.90
9033;DHT22;4551;53.164;8.210;2023-04-01T04:33:17;10.40;99.90
9033;DHT22;4551;53.164;8.210;2023-04-01T04:35:45;10.40;99.90
9033;DHT22;4551;53.164;8.210;2023-04-01T04:38:13;10.40;99.90
9033;DHT22;4551;53.164;8.210;2023-04-01T04:40:44;10.40;99.90
9033;DHT22;4551;53.164;8.210;2023-04-01T04:43:12;10.30;99.90
9033;DHT22;4551;53.164;8.210;2023-04-01T04:45:40;10.40;99.90
9033;DHT22;4551;53.164;8.210;2023-04-01T04:48:09;10.40;99.90
9033;DHT22;4551;53.164;8.210;2023-04-01T04:50:37;10.40;99.90
9033;DHT22;4551;53.164;8.210;2023-04-01T04:53:08;10.40;99.90
9033;DHT22;4551;53.164;8.210;2023-04-01T04:55:36;10.40;99.90
9033;DHT22;4551;53.164;8.210;2023-04-01T04:58:06;10.40;99.90
9033;DHT22;4551;53.164;8.210;2023-04-01T05:00:34;10.40;99.90
9033;DHT22;4551;53.164;8.210;2023-04-01T05:03:02;10.40;99.90
9033;DHT22;4551;53.164;8.210;2023-04-01T05:05:30;10.40;99.90
9033;DHT22;4551;53.164;8.210;2023-04-01T05:07:58;10.40;99.90
9033;DHT22;4551;53.164;8.210;2023-04-01T05:10:26;10.40;99.90
9033;DHT22;4551;53.164;8.210;2023-04-01T05:12:57;10.40;99.90
9033;DHT22;4551;53.164;8.210;2023-04-01T05:15:27;10.40;99.90
9033;DHT22;4551;53.164;8.210;2023-04-01T05:17:55;10.40;99.90
9033;DHT22;4551;53.164;8.210;2023-04-01T05:20:23;10.40;99.90
9033;DHT22;4551;53.164;8.210;2023-04-01T05:22:55;10.40;99.90
9033;DHT22;4551;53.164;8.210;2023-04-01T05:25:23;10.40;99.90
9033;DHT22;4551;53.164;8.210;2023-04-01T05:27:51;10.40;99.90
9033;DHT22;4551;53.164;8.210;2023-04-01T05:30:19;10.40;99.90
9033;DHT22;4551;53.164;8.210;2023-04-01T05:32:49;10.40;99.90
9033;DHT22;4551;53.164;8.210;2023-04-01T05:35:17;10.40;99.90
9033;DHT22;4551;53.164;8.210;2023-04-01T05:37:45;10.40;99.90
9033;DHT22;4551;53.164;8.210;2023-04-01T05:40:15;10.40;99.90
9033;DHT22;4551;53.164;8.210;2023-04-01T05:42:43;10.40;99.90
9033;DHT22;4551;53.164;8.210;2023-04-01T05:45:11;10.40;99.90
9033;DHT22;4551;53.164;8.210;2023-04-01T05:47:43;10.40;99.90
9033;DHT22;4551;53.164;8.210;2023-04-01T05:50:13;10.40;99.90
9033;DHT22;4551;53.164;8.210;2023-04-01T05:52:41;10.40;99.90
9033;DHT22;4551;53.164;8.210;2023-04-01T05:55:09;10.40;99.90
9033;DHT22;4551;53.164;8.210;2023-04-01T05:57:37;10.40;99.90
9033;DHT22;4551;53.164;8.210;2023-04-01T06:00:06;10.40;99.90
9033;DHT22;4551;53.164;8.210;2023-04-01T06:02:34;10.40;99.90
9033;DHT22;4551;53.164;8.210;2023-04-01T06:05:11;10.40;99.90
9033;DHT22;4551;53.164;8.210;2023-04-01T06:07:41;10.40;99.90
9033;DHT22;4551;53.164;8.210;2023-04-01T06:10:12;10.40;99.90
9033;DHT22;4551;53.164;8.210;2023-04-01T06:12:45;10.40;99.90
9033;DHT22;4551;53.164;8.210;2023-04-01T06:15:17;10.40;99.90
9033;DHT22;4551;53.164;8.210;2023-04-01T06:20:45;10.50;99.90
9033;DHT22;4551;53.164;8.210;2023-04-01T06:23:25;10.50;99.90
9033;DHT22;4551;53.164;8.210;2023-04-01T06:26:02;10.50;99.90
9033;DHT22;4551;53.164;8.210;2023-04-01T06:28:52;10.50;99.90
9033;DHT22;4551;53.164;8.210;2023-04-01T06:31:25;10.50;99.90
9033;DHT22;4551;53.164;8.210;2023-04-01T06:34:07;10.50;99.90
9033;DHT22;4551;53.164;8.210;2023-04-01T06:36:43;10.50;99.90
9033;DHT22;4551;53.164;8.210;2023-04-01T06:39:19;10.50;99.90
9033;DHT22;4551;53.164;8.210;2023-04-01T06:41:56;10.50;99.90
9033;DHT22;4551;53.164;8.210;2023-04-01T06:44:29;10.50;99.90
9033;DHT22;4551;53.164;8.210;2023-04-01T06:47:10;10.60;99.90
9033;DHT22;4551;53.164;8.210;2023-04-01T06:49:44;10.60;99.90
9033;DHT22;4551;53.164;8.210;2023-04-01T06:52:18;10.60;99.90
9033;DHT22;4551;53.164;8.210;2023-04-01T06:54:49;10.60;99.90
9033;DHT22;4551;53.164;8.210;2023-04-01T06:57:22;10.60;99.90
9033;DHT22;4551;53.164;8.210;2023-04-01T06:59:51;10.60;99.90
9033;DHT22;4551;53.164;8.210;2023-04-01T07:02:23;10.60;99.90
9033;DHT22;4551;53.164;8.210;2023-04-01T07:04:53;10.60;99.90
9033;DHT22;4551;53.164;8.210;2023-04-01T07:07:25;10.60;99.90
9033;DHT22;4551;53.164;8.210;2023-04-01T07:09:56;10.60;99.90
9033;DHT22;4551;53.164;8.210;2023-04-01T07:12:30;10.60;99.90
9033;DHT22;4551;53.164;8.210;2023-04-01T07:15:02;10.60;99.90
9033;DHT22;4551;53.164;8.210;2023-04-01T07:17:31;10.60;99.90
9033;DHT22;4551;53.164;8.210;2023-04-01T07:20:01;10.60;99.90
9033;DHT22;4551;53.164;8.210;2023-04-01T07:22:32;10.70;99.90
9033;DHT22;4551;53.164;8.210;2023-04-01T07:25:04;10.70;99.90
9033;DHT22;4551;53.164;8.210;2023-04-01T07:27:33;10.70;99.90
9033;DHT22;4551;53.164;8.210;2023-04-01T07:30:01;10.70;99.90
9033;DHT22;4551;53.164;8.210;2023-04-01T07:32:31;10.70;99.90
9033;DHT22;4551;53.164;8.210;2023-04-01T07:35:08;10.70;99.90
9033;DHT22;4551;53.164;8.210;2023-04-01T07:37:39;10.70;99.90
9033;DHT22;4551;53.164;8.210;2023-04-01T07:40:14;10.70;99.90
9033;DHT22;4551;53.164;8.210;2023-04-01T07:42:48;10.80;99.90
9033;DHT22;4551;53.164;8.210;2023-04-01T07:45:23;10.80;99.90
9033;DHT22;4551;53.164;8.210;2023-04-01T07:47:56;10.80;99.90
9033;DHT22;4551;53.164;8.210;2023-04-01T07:50:27;10.80;99.90
9033;DHT22;4551;53.164;8.210;2023-04-01T07:52:59;10.80;99.90
9033;DHT22;4551;53.164;8.210;2023-04-01T07:55:34;10.90;99.90
9033;DHT22;4551;53.164;8.210;2023-04-01T07:58:05;10.90;99.90
9033;DHT22;4551;53.164;8.210;2023-04-01T08:00:37;10.90;99.90
9033;DHT22;4551;53.164;8.210;2023-04-01T08:03:15;11.00;99.90
9033;DHT22;4551;53.164;8.210;2023-04-01T08:05:46;11.00;99.90
9033;DHT22;4551;53.164;8.210;2023-04-01T08:08:18;11.00;99.90
9033;DHT22;4551;53.164;8.210;2023-04-01T08:10:49;11.00;99.90
9033;DHT22;4551;53.164;8.210;2023-04-01T08:13:22;11.00;99.90
9033;DHT22;4551;53.164;8.210;2023-04-01T08:15:55;11.00;99.90
9033;DHT22;4551;53.164;8.210;2023-04-01T08:18:28;11.10;99.90
9033;DHT22;4551;53.164;8.210;2023-04-01T08:21:00;11.10;99.90
9033;DHT22;4551;53.164;8.210;2023-04-01T08:23:30;11.10;99.90
9033;DHT22;4551;53.164;8.210;2023-04-01T08:26:00;11.10;99.90
9033;DHT22;4551;53.164;8.210;2023-04-01T08:28:32;11.20;99.90
9033;DHT22;4551;53.164;8.210;2023-04-01T08:31:03;11.20;99.90
9033;DHT22;4551;53.164;8.210;2023-04-01T08:33:32;11.20;99.90
9033;DHT22;4551;53.164;8.210;2023-04-01T08:36:02;11.30;99.90
9033;DHT22;4551;53.164;8.210;2023-04-01T08:38:32;11.30;99.90
9033;DHT22;4551;53.164;8.210;2023-04-01T08:41:02;11.40;99.90
9033;DHT22;4551;53.164;8.210;2023-04-01T08:46:36;11.50;99.90
9033;DHT22;4551;53.164;8.210;2023-04-01T08:49:14;11.50;99.90
9033;DHT22;4551;53.164;8.210;2023-04-01T08:51:53;11.50;99.90
9033;DHT22;4551;53.164;8.210;2023-04-01T08:54:29;11.50;99.90
9033;DHT22;4551;53.164;8.210;2023-04-01T08:57:03;11.60;99.90
9033;DHT22;4551;53.164;8.210;2023-04-01T08:59:39;11.70;99.90
9033;DHT22;4551;53.164;8.210;2023-04-01T09:02:24;11.70;99.90
9033;DHT22;4551;53.164;8.210;2023-04-01T09:05:02;11.70;99.90
9033;DHT22;4551;53.164;8.210;2023-04-01T09:07:35;11.80;99.90
9033;DHT22;4551;53.164;8.210;2023-04-01T09:13:07;11.80;99.90
9033;DHT22;4551;53.164;8.210;2023-04-01T09:15:49;11.80;99.90
9033;DHT22;4551;53.164;8.210;2023-04-01T09:18:29;11.90;99.90
9033;DHT22;4551;53.164;8.210;2023-04-01T09:21:04;11.90;99.90
9033;DHT22;4551;53.164;8.210;2023-04-01T09:23:43;12.00;99.90
9033;DHT22;4551;53.164;8.210;2023-04-01T09:26:18;11.90;99.90
9033;DHT22;4551;53.164;8.210;2023-04-01T09:28:53;12.00;99.90
9033;DHT22;4551;53.164;8.210;2023-04-01T09:31:39;12.00;99.90
9033;DHT22;4551;53.164;8.210;2023-04-01T09:34:20;12.00;99.90
9033;DHT22;4551;53.164;8.210;2023-04-01T09:36:53;12.00;99.90
9033;DHT22;4551;53.164;8.210;2023-04-01T09:39:31;12.00;99.90
9033;DHT22;4551;53.164;8.210;2023-04-01T09:42:14;11.90;99.90
9033;DHT22;4551;53.164;8.210;2023-04-01T09:44:46;11.90;99.90
9033;DHT22;4551;53.164;8.210;2023-04-01T09:47:22;12.00;99.90
9033;DHT22;4551;53.164;8.210;2023-04-01T09:49:57;11.90;99.90
9033;DHT22;4551;53.164;8.210;2023-04-01T09:52:34;11.90;99.90
9033;DHT22;4551;53.164;8.210;2023-04-01T10:03:35;11.50;99.90
9033;DHT22;4551;53.164;8.210;2023-04-01T10:06:13;11.40;99.90
9033;DHT22;4551;53.164;8.210;2023-04-01T10:09:02;11.30;99.90
9033;DHT22;4551;53.164;8.210;2023-04-01T10:14:25;11.10;99.90
9033;DHT22;4551;53.164;8.210;2023-04-01T10:17:14;11.00;99.90
9033;DHT22;4551;53.164;8.210;2023-04-01T10:19:58;11.00;99.90
9033;DHT22;4551;53.164;8.210;2023-04-01T10:22:36;10.90;99.90
9033;DHT22;4551;53.164;8.210;2023-04-01T10:28:04;10.90;99.90
9033;DHT22;4551;53.164;8.210;2023-04-01T10:33:25;10.80;99.90
9033;DHT22;4551;53.164;8.210;2023-04-01T10:38:55;10.60;99.90
9033;DHT22;4551;53.164;8.210;2023-04-01T10:44:25;10.60;99.90
9033;DHT22;4551;53.164;8.210;2023-04-01T10:49:45;10.50;99.90
9033;DHT22;4551;53.164;8.210;2023-04-01T10:52:30;10.50;99.90
9033;DHT22;4551;53.164;8.210;2023-04-01T10:55:17;10.50;99.90
9033;DHT22;4551;53.164;8.210;2023-04-01T11:00:42;10.30;99.90
9033;DHT22;4551;53.164;8.210;2023-04-01T11:06:11;10.30;99.90
9033;DHT22;4551;53.164;8.210;2023-04-01T11:08:51;10.30;99.90
9033;DHT22;4551;53.164;8.210;2023-04-01T11:11:36;10.20;99.90
9033;DHT22;4551;53.164;8.210;2023-04-01T11:17:23;10.10;99.90
9033;DHT22;4551;53.164;8.210;2023-04-01T11:20:02;10.10;99.90
9033;DHT22;4551;53.164;8.210;2023-04-01T11:22:52;10.20;99.90
9033;DHT22;4551;53.164;8.210;2023-04-01T11:25:35;10.10;99.90
9033;DHT22;4551;53.164;8.210;2023-04-01T11:28:15;10.10;99.90
9033;DHT22;4551;53.164;8.210;2023-04-01T11:30:53;10.10;99.90
9033;DHT22;4551;53.164;8.210;2023-04-01T11:33:28;10.00;99.90
9033;DHT22;4551;53.164;8.210;2023-04-01T11:36:02;10.00;99.90
9033;DHT22;4551;53.164;8.210;2023-04-01T11:38:36;10.00;99.90
9033;DHT22;4551;53.164;8.210;2023-04-01T11:41:10;9.90;99.90
9033;DHT22;4551;53.164;8.210;2023-04-01T11:43:43;9.90;99.90
9033;DHT22;4551;53.164;8.210;2023-04-01T11:46:16;9.90;99.90
9033;DHT22;4551;53.164;8.210;2023-04-01T11:48:52;9.80;99.90
9033;DHT22;4551;53.164;8.210;2023-04-01T11:51:39;9.80;99.90
9033;DHT22;4551;53.164;8.210;2023-04-01T11:54:11;9.80;99.90
9033;DHT22;4551;53.164;8.210;2023-04-01T11:56:51;9.80;99.90
9033;DHT22;4551;53.164;8.210;2023-04-01T11:59:29;9.80;99.90
9033;DHT22;4551;53.164;8.210;2023-04-01T12:02:03;9.70;99.90
9033;DHT22;4551;53.164;8.210;2023-04-01T12:07:23;9.60;99.90
9033;DHT22;4551;53.164;8.210;2023-04-01T12:10:01;9.70;99.90
9033;DHT22;4551;53.164;8.210;2023-04-01T12:12:32;9.50;99.90
9033;DHT22;4551;53.164;8.210;2023-04-01T12:15:10;9.60;99.90
9033;DHT22;4551;53.164;8.210;2023-04-01T12:17:43;9.50;99.90
9033;DHT22;4551;53.164;8.210;2023-04-01T12:20:22;9.40;99.90
9033;DHT22;4551;53.164;8.210;2023-04-01T12:22:54;9.40;99.90
9033;DHT22;4551;53.164;8.210;2023-04-01T12:25:33;9.40;99.90
9033;DHT22;4551;53.164;8.210;2023-04-01T12:28:06;9.30;99.90
9033;DHT22;4551;53.164;8.210;2023-04-01T12:30:51;9.30;99.90
9033;DHT22;4551;53.164;8.210;2023-04-01T12:36:19;9.30;99.90
9033;DHT22;4551;53.164;8.210;2023-04-01T12:38:51;9.30;99.90
9033;DHT22;4551;53.164;8.210;2023-04-01T12:41:26;9.30;99.90
9033;DHT22;4551;53.164;8.210;2023-04-01T12:44:02;9.30;99.90
9033;DHT22;4551;53.164;8.210;2023-04-01T12:46:36;9.20;99.90
9033;DHT22;4551;53.164;8.210;2023-04-01T12:49:19;9.20;99.90
9033;DHT22;4551;53.164;8.210;2023-04-01T12:51:53;9.20;99.90
9033;DHT22;4551;53.164;8.210;2023-04-01T12:57:21;9.10;99.90
9033;DHT22;4551;53.164;8.210;2023-04-01T12:59:55;9.20;99.90
9033;DHT22;4551;53.164;8.210;2023-04-01T13:02:35;9.10;99.90
9033;DHT22;4551;53.164;8.210;2023-04-01T13:05:18;9.10;99.90
9033;DHT22;4551;53.164;8.210;2023-04-01T13:07:51;9.10;99.90
9033;DHT22;4551;53.164;8.210;2023-04-01T13:10:26;9.10;99.90
9033;DHT22;4551;53.164;8.210;2023-04-01T13:13:08;9.10;99.90
9033;DHT22;4551;53.164;8.210;2023-04-01T13:15:40;9.10;99.90
9033;DHT22;4551;53.164;8.210;2023-04-01T13:18:19;9.10;99.90
9033;DHT22;4551;53.164;8.210;2023-04-01T13:20:50;9.10;99.90
9033;DHT22;4551;53.164;8.210;2023-04-01T13:23:28;9.10;99.90
9033;DHT22;4551;53.164;8.210;2023-04-01T13:26:04;9.10;99.90
9033;DHT22;4551;53.164;8.210;2023-04-01T13:28:43;9.00;99.90
9033;DHT22;4551;53.164;8.210;2023-04-01T13:31:20;9.00;99.90
9033;DHT22;4551;53.164;8.210;2023-04-01T13:33:56;9.00;99.90
9033;DHT22;4551;53.164;8.210;2023-04-01T13:36:28;9.00;99.90
9033;DHT22;4551;53.164;8.210;2023-04-01T13:39:10;9.00;99.90
9033;DHT22;4551;53.164;8.210;2023-04-01T13:41:50;9.00;99.90
9033;DHT22;4551;53.164;8.210;2023-04-01T13:44:20;9.00;99.90
9033;DHT22;4551;53.164;8.210;2023-04-01T13:49:49;9.00;99.90
9033;DHT22;4551;53.164;8.210;2023-04-01T13:55:24;9.00;99.90
9033;DHT22;4551;53.164;8.210;2023-04-01T14:00:49;9.00;99.90
9033;DHT22;4551;53.164;8.210;2023-04-01T14:03:28;9.00;99.90
9033;DHT22;4551;53.164;8.210;2023-04-01T14:06:16;9.00;99.90
9033;DHT22;4551;53.164;8.210;2023-04-01T14:08:59;9.00;99.90
9033;DHT22;4551;53.164;8.210;2023-04-01T14:11:31;9.00;99.90
9033;DHT22;4551;53.164;8.210;2023-04-01T14:14:09;8.90;99.90
9033;DHT22;4551;53.164;8.210;2023-04-01T14:16:52;8.90;99.90
9033;DHT22;4551;53.164;8.210;2023-04-01T14:19:26;9.00;99.90
9033;DHT22;4551;53.164;8.210;2023-04-01T14:22:01;9.00;99.90
9033;DHT22;4551;53.164;8.210;2023-04-01T14:24:42;8.90;99.90
9033;DHT22;4551;53.164;8.210;2023-04-01T14:27:35;9.00;99.90
9033;DHT22;4551;53.164;8.210;2023-04-01T14:30:14;9.00;99.90
9033;DHT22;4551;53.164;8.210;2023-04-01T14:32:48;9.00;99.90
9033;DHT22;4551;53.164;8.210;2023-04-01T14:35:30;8.90;99.90
9033;DHT22;4551;53.164;8.210;2023-04-01T14:38:09;8.80;99.90
9033;DHT22;4551;53.164;8.210;2023-04-01T14:40:48;8.80;99.90
9033;DHT22;4551;53.164;8.210;2023-04-01T14:48:57;8.70;99.90
9033;DHT22;4551;53.164;8.210;2023-04-01T14:51:28;8.60;99.90
9033;DHT22;4551;53.164;8.210;2023-04-01T14:54:02;8.60;99.90
9033;DHT22;4551;53.164;8.210;2023-04-01T14:56:35;8.60;99.90
9033;DHT22;4551;53.164;8.210;2023-04-01T14:59:07;8.60;99.90
9033;DHT22;4551;53.164;8.210;2023-04-01T15:01:37;9.10;99.90
9033;DHT22;4551;53.164;8.210;2023-04-01T15:04:21;8.50;99.90
9033;DHT22;4551;53.164;8.210;2023-04-01T15:06:59;8.50;99.90
9033;DHT22;4551;53.164;8.210;2023-04-01T15:09:32;8.50;99.90
9033;DHT22;4551;53.164;8.210;2023-04-01T15:12:08;8.50;99.90
9033;DHT22;4551;53.164;8.210;2023-04-01T15:14:48;8.40;99.90
9033;DHT22;4551;53.164;8.210;2023-04-01T15:17:25;8.40;99.90
9033;DHT22;4551;53.164;8.210;2023-04-01T15:20:04;8.30;99.90
9033;DHT22;4551;53.164;8.210;2023-04-01T15:22:48;8.30;99.90
9033;DHT22;4551;53.164;8.210;2023-04-01T15:25:26;8.20;99.90
9033;DHT22;4551;53.164;8.210;2023-04-01T15:27:58;8.20;99.90
9033;DHT22;4551;53.164;8.210;2023-04-01T15:30:29;8.20;99.90
9033;DHT22;4551;53.164;8.210;2023-04-01T15:33:06;8.20;99.90
9033;DHT22;4551;53.164;8.210;2023-04-01T15:35:39;8.10;99.90
9033;DHT22;4551;53.164;8.210;2023-04-01T15:38:10;8.10;99.90
9033;DHT22;4551;53.164;8.210;2023-04-01T15:40:47;8.00;99.90
9033;DHT22;4551;53.164;8.210;2023-04-01T15:43:24;8.00;99.90
9033;DHT22;4551;53.164;8.210;2023-04-01T15:45:58;7.90;99.90
9033;DHT22;4551;53.164;8.210;2023-04-01T15:48:32;7.90;99.90
9033;DHT22;4551;53.164;8.210;2023-04-01T15:51:02;7.90;99.90
9033;DHT22;4551;53.164;8.210;2023-04-01T15:53:56;7.80;99.90
9033;DHT22;4551;53.164;8.210;2023-04-01T15:56:36;7.80;99.90
9033;DHT22;4551;53.164;8.210;2023-04-01T15:59:09;7.80;99.90
9033;DHT22;4551;53.164;8.210;2023-04-01T16:01:43;7.70;99.90
9033;DHT22;4551;53.164;8.210;2023-04-01T16:04:21;7.70;99.90
9033;DHT22;4551;53.164;8.210;2023-04-01T16:07:02;7.70;99.90
9033;DHT22;4551;53.164;8.210;2023-04-01T16:09:43;7.70;99.90
9033;DHT22;4551;53.164;8.210;2023-04-01T16:12:19;7.60;99.90
9033;DHT22;4551;53.164;8.210;2023-04-01T16:14:56;7.60;99.90
9033;DHT22;4551;53.164;8.210;2023-04-01T16:17:33;7.50;99.90
9033;DHT22;4551;53.164;8.210;2023-04-01T16:20:12;7.50;99.90
9033;DHT22;4551;53.164;8.210;2023-04-01T16:22:45;7.50;99.90
9033;DHT22;4551;53.164;8.210;2023-04-01T16:25:20;7.40;99.90
9033;DHT22;4551;53.164;8.210;2023-04-01T16:28:03;7.40;99.90
9033;DHT22;4551;53.164;8.210;2023-04-01T16:30:35;7.40;99.90
9033;DHT22;4551;53.164;8.210;2023-04-01T16:33:05;7.30;99.90
9033;DHT22;4551;53.164;8.210;2023-04-01T16:35:41;7.30;99.90
9033;DHT22;4551;53.164;8.210;2023-04-01T16:38:12;7.30;99.90
9033;DHT22;4551;53.164;8.210;2023-04-01T16:40:45;7.30;99.90
9033;DHT22;4551;53.164;8.210;2023-04-01T16:43:19;7.30;99.90
9033;DHT22;4551;53.164;8.210;2023-04-01T16:45:53;7.30;99.90
9033;DHT22;4551;53.164;8.210;2023-04-01T16:48:22;7.30;99.90
9033;DHT22;4551;53.164;8.210;2023-04-01T16:50:54;7.30;99.90
9033;DHT22;4551;53.164;8.210;2023-04-01T16:53:25;7.20;99.90
9033;DHT22;4551;53.164;8.210;2023-04-01T16:56:02;6.70;99.90
9033;DHT22;4551;53.164;8.210;2023-04-01T16:58:35;7.10;99.90
9033;DHT22;4551;53.164;8.210;2023-04-01T17:01:04;7.60;99.90
9033;DHT22;4551;53.164;8.210;2023-04-01T17:03:34;7.10;99.90
9033;DHT22;4551;53.164;8.210;2023-04-01T17:06:11;7.10;99.90
9033;DHT22;4551;53.164;8.210;2023-04-01T17:08:50;7.10;99.90
9033;DHT22;4551;53.164;8.210;2023-04-01T17:11:24;7.00;99.90
9033;DHT22;4551;53.164;8.210;2023-04-01T17:13:57;7.00;99.90
9033;DHT22;4551;53.164;8.210;2023-04-01T17:19:16;7.00;99.90
9033;DHT22;4551;53.164;8.210;2023-04-01T17:21:55;7.00;99.90
9033;DHT22;4551;53.164;8.210;2023-04-01T17:24:31;7.00;99.90
9033;DHT22;4551;53.164;8.210;2023-04-01T17:27:08;7.00;99.90
9033;DHT22;4551;53.164;8.210;2023-04-01T17:29:43;7.00;99.90
9033;DHT22;4551;53.164;8.210;2023-04-01T17:32:12;7.00;99.90
9033;DHT22;4551;53.164;8.210;2023-04-01T17:34:46;7.10;99.90
9033;DHT22;4551;53.164;8.210;2023-04-01T17:37:27;7.00;99.90
9033;DHT22;4551;53.164;8.210;2023-04-01T17:40:00;7.00;99.90
9033;DHT22;4551;53.164;8.210;2023-04-01T17:42:36;7.00;99.90
9033;DHT22;4551;53.164;8.210;2023-04-01T17:45:10;7.00;99.90
9033;DHT22;4551;53.164;8.210;2023-04-01T17:47:44;6.90;99.90
9033;DHT22;4551;53.164;8.210;2023-04-01T17:50:21;6.90;99.90
9033;DHT22;4551;53.164;8.210;2023-04-01T17:52:52;6.90;99.90
9033;DHT22;4551;53.164;8.210;2023-04-01T17:58:19;6.90;99.90